sensor_id;sensor_type;location;lat;lon;timestamp;P1;durP1;ratioP1;P2;durP2;ratioP2
26598;SDS011;14240;51.064;16.612;2023-06-24T00:01:27;30.87;;;20.27;;
26598;SDS011;14240;51.064;16.612;2023-06-24T00:03:53;38.88;;;21.42;;
26598;SDS011;14240;51.064;16.612;2023-06-24T00:06:19;31.08;;;18.75;;
26598;SDS011;14240;51.064;16.612;2023-06-24T00:08:46;26.15;;;15.57;;
26598;SDS011;14240;51.064;16.612;2023-06-24T00:11:12;26.70;;;16.52;;
26598;SDS011;14240;51.064;16.612;2023-06-24T00:13:41;21.30;;;13.82;;
26598;SDS011;14240;51.064;16.612;2023-06-24T00:16:08;23.95;;;13.80;;
26598;SDS011;14240;51.064;16.612;2023-06-24T00:18:34;19.05;;;11.65;;
26598;SDS011;14240;51.064;16.612;2023-06-24T00:21:01;15.93;;;10.77;;
26598;SDS011;14240;51.064;16.612;2023-06-24T00:23:27;20.85;;;12.65;;
26598;SDS011;14240;51.064;16.612;2023-06-24T00:25:55;16.85;;;10.73;;
26598;SDS011;14240;51.064;16.612;2023-06-24T00:28:22;15.02;;;8.77;;
26598;SDS011;14240;51.064;16.612;2023-06-24T00:30:48;10.88;;;7.43;;
26598;SDS011;14240;51.064;16.612;2023-06-24T00:33:14;12.70;;;6.95;;
26598;SDS011;14240;51.064;16.612;2023-06-24T00:35:41;13.73;;;7.17;;
26598;SDS011;14240;51.064;16.612;2023-06-24T00:38:08;8.70;;;6.63;;
26598;SDS011;14240;51.064;16.612;2023-06-24T00:40:37;11.48;;;7.43;;
26598;SDS011;14240;51.064;16.612;2023-06-24T00:43:04;13.68;;;8.30;;
26598;SDS011;14240;51.064;16.612;2023-06-24T00:45:30;15.73;;;8.90;;
26598;SDS011;14240;51.064;16.612;2023-06-24T00:47:57;14.55;;;8.43;;
26598;SDS011;14240;51.064;16.612;2023-06-24T00:50:26;16.70;;;8.77;;
26598;SDS011;14240;51.064;16.612;2023-06-24T00:52:52;13.18;;;9.02;;
26598;SDS011;14240;51.064;16.612;2023-06-24T00:55:18;16.88;;;9.05;;
26598;SDS011;14240;51.064;16.612;2023-06-24T00:57:47;16.33;;;9.30;;
26598;SDS011;14240;51.064;16.612;2023-06-24T01:00:17;16.38;;;9.32;;
26598;SDS011;14240;51.064;16.612;2023-06-24T01:02:45;16.55;;;8.98;;
26598;SDS011;14240;51.064;16.612;2023-06-24T01:05:12;17.55;;;8.90;;
26598;SDS011;14240;51.064;16.612;2023-06-24T01:07:39;14.93;;;9.77;;
26598;SDS011;14240;51.064;16.612;2023-06-24T01:10:09;15.70;;;8.03;;
26598;SDS011;14240;51.064;16.612;2023-06-24T01:12:38;24.00;;;9.38;;
26598;SDS011;14240;51.064;16.612;2023-06-24T01:15:06;18.98;;;9.52;;
26598;SDS011;14240;51.064;16.612;2023-06-24T01:17:39;17.05;;;9.07;;
26598;SDS011;14240;51.064;16.612;2023-06-24T01:20:25;22.63;;;9.57;;
26598;SDS011;14240;51.064;16.612;2023-06-24T01:23:17;15.23;;;9.50;;
26598;SDS011;14240;51.064;16.612;2023-06-24T01:29:48;16.65;;;9.13;;
26598;SDS011;14240;51.064;16.612;2023-06-24T01:31:48;21.27;;;9.55;;
26598;SDS011;14240;51.064;16.612;2023-06-24T01:37:19;17.90;;;9.50;;
26598;SDS011;14240;51.064;16.612;2023-06-24T01:39:52;21.45;;;10.02;;
26598;SDS011;14240;51.064;16.612;2023-06-24T01:42:25;16.10;;;9.98;;
26598;SDS011;14240;51.064;16.612;2023-06-24T01:44:54;18.55;;;9.48;;
26598;SDS011;14240;51.064;16.612;2023-06-24T01:47:23;16.63;;;9.82;;
26598;SDS011;14240;51.064;16.612;2023-06-24T01:49:52;15.18;;;9.43;;
26598;SDS011;14240;51.064;16.612;2023-06-24T01:52:22;17.92;;;9.13;;
26598;SDS011;14240;51.064;16.612;2023-06-24T01:54:48;15.85;;;9.70;;
26598;SDS011;14240;51.064;16.612;2023-06-24T01:57:17;16.63;;;10.00;;
26598;SDS011;14240;51.064;16.612;2023-06-24T01:59:45;17.40;;;10.30;;
26598;SDS011;14240;51.064;16.612;2023-06-24T02:02:11;19.10;;;9.52;;
26598;SDS011;14240;51.064;16.612;2023-06-24T02:04:37;14.75;;;8.73;;
26598;SDS011;14240;51.064;16.612;2023-06-24T02:07:04;14.10;;;9.48;;
26598;SDS011;14240;51.064;16.612;2023-06-24T02:09:32;14.18;;;9.35;;
26598;SDS011;14240;51.064;16.612;2023-06-24T02:12:00;12.70;;;9.05;;
26598;SDS011;14240;51.064;16.612;2023-06-24T02:14:28;22.30;;;9.20;;
26598;SDS011;14240;51.064;16.612;2023-06-24T02:16:55;19.30;;;9.48;;
26598;SDS011;14240;51.064;16.612;2023-06-24T02:19:24;20.15;;;9.90;;
26598;SDS011;14240;51.064;16.612;2023-06-24T02:21:54;16.65;;;9.15;;
26598;SDS011;14240;51.064;16.612;2023-06-24T02:24:23;16.40;;;9.20;;
26598;SDS011;14240;51.064;16.612;2023-06-24T02:26:49;13.27;;;9.00;;
26598;SDS011;14240;51.064;16.612;2023-06-24T02:29:16;19.83;;;10.85;;
26598;SDS011;14240;51.064;16.612;2023-06-24T02:31:43;16.30;;;9.00;;
26598;SDS011;14240;51.064;16.612;2023-06-24T02:34:08;14.25;;;8.95;;
26598;SDS011;14240;51.064;16.612;2023-06-24T02:36:34;25.50;;;11.38;;
26598;SDS011;14240;51.064;16.612;2023-06-24T02:39:00;12.18;;;8.40;;
26598;SDS011;14240;51.064;16.612;2023-06-24T02:41:26;15.05;;;8.27;;
26598;SDS011;14240;51.064;16.612;2023-06-24T02:43:52;17.67;;;9.63;;
26598;SDS011;14240;51.064;16.612;2023-06-24T02:46:17;15.02;;;8.02;;
26598;SDS011;14240;51.064;16.612;2023-06-24T02:48:45;18.38;;;8.68;;
26598;SDS011;14240;51.064;16.612;2023-06-24T02:51:13;18.63;;;9.40;;
26598;SDS011;14240;51.064;16.612;2023-06-24T02:53:39;15.93;;;8.98;;
26598;SDS011;14240;51.064;16.612;2023-06-24T02:56:05;14.27;;;7.95;;
26598;SDS011;14240;51.064;16.612;2023-06-24T03:01:01;12.60;;;7.55;;
26598;SDS011;14240;51.064;16.612;2023-06-24T03:03:33;13.48;;;7.30;;
26598;SDS011;14240;51.064;16.612;2023-06-24T03:06:00;13.60;;;7.22;;
26598;SDS011;14240;51.064;16.612;2023-06-24T03:08:27;12.70;;;6.82;;
26598;SDS011;14240;51.064;16.612;2023-06-24T03:10:54;13.75;;;7.47;;
26598;SDS011;14240;51.064;16.612;2023-06-24T03:13:21;12.40;;;6.25;;
26598;SDS011;14240;51.064;16.612;2023-06-24T03:15:47;8.88;;;6.20;;
26598;SDS011;14240;51.064;16.612;2023-06-24T03:18:12;11.48;;;6.80;;
26598;SDS011;14240;51.064;16.612;2023-06-24T03:20:38;10.25;;;6.35;;
26598;SDS011;14240;51.064;16.612;2023-06-24T03:23:07;9.70;;;5.95;;
26598;SDS011;14240;51.064;16.612;2023-06-24T03:25:34;15.40;;;6.88;;
26598;SDS011;14240;51.064;16.612;2023-06-24T03:28:00;12.15;;;6.82;;
26598;SDS011;14240;51.064;16.612;2023-06-24T03:30:26;11.25;;;5.93;;
26598;SDS011;14240;51.064;16.612;2023-06-24T03:32:52;11.45;;;6.32;;
26598;SDS011;14240;51.064;16.612;2023-06-24T03:35:18;12.82;;;6.32;;
26598;SDS011;14240;51.064;16.612;2023-06-24T03:37:44;11.02;;;6.30;;
26598;SDS011;14240;51.064;16.612;2023-06-24T03:40:10;10.38;;;6.30;;
26598;SDS011;14240;51.064;16.612;2023-06-24T03:42:36;11.77;;;6.25;;
26598;SDS011;14240;51.064;16.612;2023-06-24T03:45:02;9.95;;;5.97;;
26598;SDS011;14240;51.064;16.612;2023-06-24T03:47:28;8.38;;;5.20;;
26598;SDS011;14240;51.064;16.612;2023-06-24T03:49:54;9.70;;;5.55;;
26598;SDS011;14240;51.064;16.612;2023-06-24T03:52:20;8.70;;;5.40;;
26598;SDS011;14240;51.064;16.612;2023-06-24T03:54:45;10.90;;;5.53;;
26598;SDS011;14240;51.064;16.612;2023-06-24T03:57:12;11.20;;;5.60;;
26598;SDS011;14240;51.064;16.612;2023-06-24T03:59:38;10.85;;;6.72;;
26598;SDS011;14240;51.064;16.612;2023-06-24T04:02:04;9.45;;;5.70;;
26598;SDS011;14240;51.064;16.612;2023-06-24T04:04:34;9.27;;;5.53;;
26598;SDS011;14240;51.064;16.612;2023-06-24T04:07:00;10.38;;;6.32;;
26598;SDS011;14240;51.064;16.612;2023-06-24T04:09:26;11.35;;;6.32;;
26598;SDS011;14240;51.064;16.612;2023-06-24T04:11:52;12.38;;;6.30;;
26598;SDS011;14240;51.064;16.612;2023-06-24T04:14:17;8.15;;;5.72;;
26598;SDS011;14240;51.064;16.612;2023-06-24T04:16:43;9.95;;;5.90;;
26598;SDS011;14240;51.064;16.612;2023-06-24T04:19:09;10.45;;;5.82;;
26598;SDS011;14240;51.064;16.612;2023-06-24T04:21:36;13.55;;;6.22;;
26598;SDS011;14240;51.064;16.612;2023-06-24T04:24:02;11.02;;;5.75;;
26598;SDS011;14240;51.064;16.612;2023-06-24T04:26:28;9.15;;;5.43;;
26598;SDS011;14240;51.064;16.612;2023-06-24T04:28:54;9.10;;;5.82;;
26598;SDS011;14240;51.064;16.612;2023-06-24T04:31:19;11.35;;;5.60;;
26598;SDS011;14240;51.064;16.612;2023-06-24T04:33:45;9.55;;;5.78;;
26598;SDS011;14240;51.064;16.612;2023-06-24T04:36:11;9.40;;;5.47;;
26598;SDS011;14240;51.064;16.612;2023-06-24T04:38:36;9.68;;;5.75;;
26598;SDS011;14240;51.064;16.612;2023-06-24T04:41:02;11.90;;;5.63;;
26598;SDS011;14240;51.064;16.612;2023-06-24T04:43:28;11.88;;;5.95;;
26598;SDS011;14240;51.064;16.612;2023-06-24T04:45:54;7.50;;;5.15;;
26598;SDS011;14240;51.064;16.612;2023-06-24T04:48:22;11.60;;;6.07;;
26598;SDS011;14240;51.064;16.612;2023-06-24T04:50:48;7.30;;;5.30;;
26598;SDS011;14240;51.064;16.612;2023-06-24T04:53:14;12.68;;;5.35;;
26598;SDS011;14240;51.064;16.612;2023-06-24T04:55:40;9.85;;;5.05;;
26598;SDS011;14240;51.064;16.612;2023-06-24T04:58:05;7.53;;;5.28;;
26598;SDS011;14240;51.064;16.612;2023-06-24T05:00:31;9.45;;;5.65;;
26598;SDS011;14240;51.064;16.612;2023-06-24T05:02:57;15.32;;;6.45;;
26598;SDS011;14240;51.064;16.612;2023-06-24T05:05:23;10.65;;;5.53;;
26598;SDS011;14240;51.064;16.612;2023-06-24T05:07:48;8.07;;;5.43;;
26598;SDS011;14240;51.064;16.612;2023-06-24T05:10:14;9.38;;;5.93;;
26598;SDS011;14240;51.064;16.612;2023-06-24T05:12:40;10.45;;;5.35;;
26598;SDS011;14240;51.064;16.612;2023-06-24T05:15:06;11.80;;;5.72;;
26598;SDS011;14240;51.064;16.612;2023-06-24T05:17:32;10.52;;;6.15;;
26598;SDS011;14240;51.064;16.612;2023-06-24T05:19:58;11.55;;;6.30;;
26598;SDS011;14240;51.064;16.612;2023-06-24T05:22:24;14.48;;;6.82;;
26598;SDS011;14240;51.064;16.612;2023-06-24T05:24:49;13.23;;;6.00;;
26598;SDS011;14240;51.064;16.612;2023-06-24T05:27:15;10.90;;;6.82;;
26598;SDS011;14240;51.064;16.612;2023-06-24T05:29:42;10.60;;;6.33;;
26598;SDS011;14240;51.064;16.612;2023-06-24T05:32:08;11.40;;;6.30;;
26598;SDS011;14240;51.064;16.612;2023-06-24T05:34:34;12.65;;;6.05;;
26598;SDS011;14240;51.064;16.612;2023-06-24T05:37:00;11.32;;;6.35;;
26598;SDS011;14240;51.064;16.612;2023-06-24T05:39:26;15.63;;;8.00;;
26598;SDS011;14240;51.064;16.612;2023-06-24T05:41:51;13.52;;;6.00;;
26598;SDS011;14240;51.064;16.612;2023-06-24T05:44:17;10.70;;;5.93;;
26598;SDS011;14240;51.064;16.612;2023-06-24T05:46:46;9.95;;;5.40;;
26598;SDS011;14240;51.064;16.612;2023-06-24T05:49:11;14.93;;;6.18;;
26598;SDS011;14240;51.064;16.612;2023-06-24T05:51:37;11.95;;;5.93;;
26598;SDS011;14240;51.064;16.612;2023-06-24T05:54:03;10.70;;;5.90;;
26598;SDS011;14240;51.064;16.612;2023-06-24T05:56:29;12.63;;;5.72;;
26598;SDS011;14240;51.064;16.612;2023-06-24T05:58:54;13.95;;;8.50;;
26598;SDS011;14240;51.064;16.612;2023-06-24T06:01:20;8.98;;;5.80;;
26598;SDS011;14240;51.064;16.612;2023-06-24T06:03:46;10.93;;;6.05;;
26598;SDS011;14240;51.064;16.612;2023-06-24T06:06:12;11.32;;;6.70;;
26598;SDS011;14240;51.064;16.612;2023-06-24T06:08:38;9.48;;;6.28;;
26598;SDS011;14240;51.064;16.612;2023-06-24T06:11:03;12.32;;;6.25;;
26598;SDS011;14240;51.064;16.612;2023-06-24T06:13:29;11.15;;;6.50;;
26598;SDS011;14240;51.064;16.612;2023-06-24T06:15:56;12.65;;;6.85;;
26598;SDS011;14240;51.064;16.612;2023-06-24T06:18:22;12.63;;;6.80;;
26598;SDS011;14240;51.064;16.612;2023-06-24T06:20:48;12.18;;;6.90;;
26598;SDS011;14240;51.064;16.612;2023-06-24T06:23:14;10.45;;;6.38;;
26598;SDS011;14240;51.064;16.612;2023-06-24T06:25:40;12.57;;;7.43;;
26598;SDS011;14240;51.064;16.612;2023-06-24T06:28:06;13.23;;;7.63;;
26598;SDS011;14240;51.064;16.612;2023-06-24T06:30:32;16.38;;;8.63;;
26598;SDS011;14240;51.064;16.612;2023-06-24T06:32:57;14.70;;;8.13;;
26598;SDS011;14240;51.064;16.612;2023-06-24T06:35:23;17.10;;;8.82;;
26598;SDS011;14240;51.064;16.612;2023-06-24T06:37:49;16.33;;;8.40;;
26598;SDS011;14240;51.064;16.612;2023-06-24T06:40:19;12.93;;;8.05;;
26598;SDS011;14240;51.064;16.612;2023-06-24T06:42:45;12.45;;;8.88;;
26598;SDS011;14240;51.064;16.612;2023-06-24T06:45:11;15.80;;;10.43;;
26598;SDS011;14240;51.064;16.612;2023-06-24T06:47:37;14.50;;;9.63;;
26598;SDS011;14240;51.064;16.612;2023-06-24T06:50:03;18.77;;;10.60;;
26598;SDS011;14240;51.064;16.612;2023-06-24T06:52:29;17.90;;;9.85;;
26598;SDS011;14240;51.064;16.612;2023-06-24T06:54:54;20.55;;;10.93;;
26598;SDS011;14240;51.064;16.612;2023-06-24T06:57:20;18.73;;;10.23;;
26598;SDS011;14240;51.064;16.612;2023-06-24T06:59:46;18.10;;;11.40;;
26598;SDS011;14240;51.064;16.612;2023-06-24T07:02:12;18.75;;;10.95;;
26598;SDS011;14240;51.064;16.612;2023-06-24T07:04:37;25.92;;;12.90;;
26598;SDS011;14240;51.064;16.612;2023-06-24T07:07:03;21.10;;;13.05;;
26598;SDS011;14240;51.064;16.612;2023-06-24T07:09:29;22.25;;;12.63;;
26598;SDS011;14240;51.064;16.612;2023-06-24T07:11:55;23.10;;;13.45;;
26598;SDS011;14240;51.064;16.612;2023-06-24T07:14:20;32.17;;;14.38;;
26598;SDS011;14240;51.064;16.612;2023-06-24T07:16:46;24.67;;;13.60;;
26598;SDS011;14240;51.064;16.612;2023-06-24T07:19:12;22.20;;;14.52;;
26598;SDS011;14240;51.064;16.612;2023-06-24T07:21:38;26.77;;;14.52;;
26598;SDS011;14240;51.064;16.612;2023-06-24T07:24:04;28.05;;;13.57;;
26598;SDS011;14240;51.064;16.612;2023-06-24T07:26:30;23.92;;;14.00;;
26598;SDS011;14240;51.064;16.612;2023-06-24T07:28:56;29.08;;;14.55;;
26598;SDS011;14240;51.064;16.612;2023-06-24T07:31:25;22.08;;;14.18;;
26598;SDS011;14240;51.064;16.612;2023-06-24T07:33:51;26.13;;;14.90;;
26598;SDS011;14240;51.064;16.612;2023-06-24T07:36:16;26.30;;;14.23;;
26598;SDS011;14240;51.064;16.612;2023-06-24T07:38:42;23.08;;;13.20;;
26598;SDS011;14240;51.064;16.612;2023-06-24T07:41:08;29.15;;;14.57;;
26598;SDS011;14240;51.064;16.612;2023-06-24T07:43:34;25.67;;;14.27;;
26598;SDS011;14240;51.064;16.612;2023-06-24T07:45:59;31.77;;;15.82;;
26598;SDS011;14240;51.064;16.612;2023-06-24T07:48:25;26.88;;;15.18;;
26598;SDS011;14240;51.064;16.612;2023-06-24T07:50:51;32.92;;;15.65;;
26598;SDS011;14240;51.064;16.612;2023-06-24T07:53:16;28.90;;;15.45;;
26598;SDS011;14240;51.064;16.612;2023-06-24T07:55:42;30.50;;;16.40;;
26598;SDS011;14240;51.064;16.612;2023-06-24T07:58:08;26.60;;;15.38;;
26598;SDS011;14240;51.064;16.612;2023-06-24T08:00:34;33.78;;;17.00;;
26598;SDS011;14240;51.064;16.612;2023-06-24T08:02:59;30.05;;;15.23;;
26598;SDS011;14240;51.064;16.612;2023-06-24T08:05:25;28.85;;;15.75;;
26598;SDS011;14240;51.064;16.612;2023-06-24T08:07:51;29.05;;;15.60;;
26598;SDS011;14240;51.064;16.612;2023-06-24T08:10:17;26.60;;;15.25;;
26598;SDS011;14240;51.064;16.612;2023-06-24T08:12:43;30.98;;;17.20;;
26598;SDS011;14240;51.064;16.612;2023-06-24T08:15:09;27.42;;;15.57;;
26598;SDS011;14240;51.064;16.612;2023-06-24T08:17:35;28.83;;;17.70;;
26598;SDS011;14240;51.064;16.612;2023-06-24T08:20:01;29.83;;;16.85;;
26598;SDS011;14240;51.064;16.612;2023-06-24T08:22:28;26.73;;;15.95;;
26598;SDS011;14240;51.064;16.612;2023-06-24T08:24:54;26.83;;;15.82;;
26598;SDS011;14240;51.064;16.612;2023-06-24T08:27:20;28.52;;;16.38;;
26598;SDS011;14240;51.064;16.612;2023-06-24T08:29:45;25.42;;;17.08;;
26598;SDS011;14240;51.064;16.612;2023-06-24T08:32:11;25.42;;;16.33;;
26598;SDS011;14240;51.064;16.612;2023-06-24T08:34:37;27.85;;;16.77;;
26598;SDS011;14240;51.064;16.612;2023-06-24T08:37:03;26.23;;;17.15;;
26598;SDS011;14240;51.064;16.612;2023-06-24T08:39:28;27.88;;;17.23;;
26598;SDS011;14240;51.064;16.612;2023-06-24T08:41:54;25.48;;;17.30;;
26598;SDS011;14240;51.064;16.612;2023-06-24T08:44:20;32.20;;;19.05;;
26598;SDS011;14240;51.064;16.612;2023-06-24T08:46:45;26.23;;;18.25;;
26598;SDS011;14240;51.064;16.612;2023-06-24T08:51:49;27.10;;;19.25;;
26598;SDS011;14240;51.064;16.612;2023-06-24T08:54:22;29.55;;;20.23;;
26598;SDS011;14240;51.064;16.612;2023-06-24T08:56:49;28.42;;;19.63;;
26598;SDS011;14240;51.064;16.612;2023-06-24T08:59:15;27.90;;;17.55;;
26598;SDS011;14240;51.064;16.612;2023-06-24T09:01:44;32.83;;;20.13;;
26598;SDS011;14240;51.064;16.612;2023-06-24T09:04:15;30.15;;;18.77;;
26598;SDS011;14240;51.064;16.612;2023-06-24T09:06:40;29.05;;;18.70;;
26598;SDS011;14240;51.064;16.612;2023-06-24T09:09:16;30.40;;;18.98;;
26598;SDS011;14240;51.064;16.612;2023-06-24T09:11:45;28.30;;;18.20;;
26598;SDS011;14240;51.064;16.612;2023-06-24T09:14:20;23.55;;;15.98;;
26598;SDS011;14240;51.064;16.612;2023-06-24T09:19:26;25.92;;;17.02;;
26598;SDS011;14240;51.064;16.612;2023-06-24T09:21:55;25.05;;;17.73;;
26598;SDS011;14240;51.064;16.612;2023-06-24T09:24:35;23.20;;;16.35;;
26598;SDS011;14240;51.064;16.612;2023-06-24T09:27:02;21.63;;;14.63;;
26598;SDS011;14240;51.064;16.612;2023-06-24T09:29:31;25.00;;;14.57;;
26598;SDS011;14240;51.064;16.612;2023-06-24T09:31:58;21.50;;;15.50;;
26598;SDS011;14240;51.064;16.612;2023-06-24T09:34:25;25.23;;;13.90;;
26598;SDS011;14240;51.064;16.612;2023-06-24T09:36:56;22.48;;;15.10;;
26598;SDS011;14240;51.064;16.612;2023-06-24T09:39:23;24.05;;;15.68;;
26598;SDS011;14240;51.064;16.612;2023-06-24T09:42:00;18.60;;;13.70;;
26598;SDS011;14240;51.064;16.612;2023-06-24T09:44:26;22.02;;;12.85;;
26598;SDS011;14240;51.064;16.612;2023-06-24T09:46:53;17.65;;;12.88;;
26598;SDS011;14240;51.064;16.612;2023-06-24T09:49:20;18.35;;;11.85;;
26598;SDS011;14240;51.064;16.612;2023-06-24T09:51:47;17.08;;;12.23;;
26598;SDS011;14240;51.064;16.612;2023-06-24T09:54:14;19.13;;;11.93;;
26598;SDS011;14240;51.064;16.612;2023-06-24T09:56:45;16.85;;;10.13;;
26598;SDS011;14240;51.064;16.612;2023-06-24T09:59:14;17.50;;;10.98;;
26598;SDS011;14240;51.064;16.612;2023-06-24T10:01:43;18.83;;;11.00;;
26598;SDS011;14240;51.064;16.612;2023-06-24T10:04:12;20.50;;;11.13;;
26598;SDS011;14240;51.064;16.612;2023-06-24T10:06:42;15.35;;;10.50;;
26598;SDS011;14240;51.064;16.612;2023-06-24T10:09:07;17.27;;;9.88;;
26598;SDS011;14240;51.064;16.612;2023-06-24T10:11:34;15.50;;;9.73;;
26598;SDS011;14240;51.064;16.612;2023-06-24T10:14:00;11.50;;;9.07;;
26598;SDS011;14240;51.064;16.612;2023-06-24T10:16:26;11.45;;;8.57;;
26598;SDS011;14240;51.064;16.612;2023-06-24T10:19:02;13.23;;;9.00;;
26598;SDS011;14240;51.064;16.612;2023-06-24T10:24:35;10.63;;;8.38;;
26598;SDS011;14240;51.064;16.612;2023-06-24T10:27:20;13.88;;;8.93;;
26598;SDS011;14240;51.064;16.612;2023-06-24T10:29:47;12.70;;;9.00;;
26598;SDS011;14240;51.064;16.612;2023-06-24T10:32:14;14.55;;;9.70;;
26598;SDS011;14240;51.064;16.612;2023-06-24T10:34:41;12.25;;;8.43;;
26598;SDS011;14240;51.064;16.612;2023-06-24T10:37:08;17.45;;;8.65;;
26598;SDS011;14240;51.064;16.612;2023-06-24T10:43:06;11.13;;;7.10;;
26598;SDS011;14240;51.064;16.612;2023-06-24T10:50:09;11.18;;;7.72;;
26598;SDS011;14240;51.064;16.612;2023-06-24T10:52:40;11.77;;;7.20;;
26598;SDS011;14240;51.064;16.612;2023-06-24T10:55:07;10.45;;;7.78;;
26598;SDS011;14240;51.064;16.612;2023-06-24T10:57:33;10.85;;;6.35;;
26598;SDS011;14240;51.064;16.612;2023-06-24T11:00:00;10.93;;;6.38;;
26598;SDS011;14240;51.064;16.612;2023-06-24T11:02:26;9.77;;;5.97;;
26598;SDS011;14240;51.064;16.612;2023-06-24T11:04:53;7.47;;;6.10;;
26598;SDS011;14240;51.064;16.612;2023-06-24T11:07:21;8.40;;;6.10;;
26598;SDS011;14240;51.064;16.612;2023-06-24T11:09:48;9.40;;;6.28;;
26598;SDS011;14240;51.064;16.612;2023-06-24T11:12:18;7.95;;;6.10;;
26598;SDS011;14240;51.064;16.612;2023-06-24T11:14:44;8.52;;;5.90;;
26598;SDS011;14240;51.064;16.612;2023-06-24T11:17:10;10.20;;;6.40;;
26598;SDS011;14240;51.064;16.612;2023-06-24T11:19:36;8.45;;;6.05;;
26598;SDS011;14240;51.064;16.612;2023-06-24T11:22:05;10.05;;;6.43;;
26598;SDS011;14240;51.064;16.612;2023-06-24T11:24:31;9.82;;;6.88;;
26598;SDS011;14240;51.064;16.612;2023-06-24T11:26:57;10.05;;;7.45;;
26598;SDS011;14240;51.064;16.612;2023-06-24T11:29:23;9.48;;;6.53;;
26598;SDS011;14240;51.064;16.612;2023-06-24T11:31:53;9.40;;;7.00;;
26598;SDS011;14240;51.064;16.612;2023-06-24T11:34:19;9.48;;;6.63;;
26598;SDS011;14240;51.064;16.612;2023-06-24T11:36:44;8.35;;;5.70;;
26598;SDS011;14240;51.064;16.612;2023-06-24T11:39:26;7.95;;;5.80;;
26598;SDS011;14240;51.064;16.612;2023-06-24T11:41:52;7.43;;;5.80;;
26598;SDS011;14240;51.064;16.612;2023-06-24T11:44:19;8.52;;;6.10;;
26598;SDS011;14240;51.064;16.612;2023-06-24T11:46:46;7.63;;;6.63;;
26598;SDS011;14240;51.064;16.612;2023-06-24T11:49:11;6.65;;;5.75;;
26598;SDS011;14240;51.064;16.612;2023-06-24T11:51:44;11.63;;;8.35;;
26598;SDS011;14240;51.064;16.612;2023-06-24T11:54:16;9.20;;;6.75;;
26598;SDS011;14240;51.064;16.612;2023-06-24T11:56:43;7.18;;;6.32;;
26598;SDS011;14240;51.064;16.612;2023-06-24T11:59:23;7.57;;;5.75;;
26598;SDS011;14240;51.064;16.612;2023-06-24T12:01:52;11.45;;;6.88;;
26598;SDS011;14240;51.064;16.612;2023-06-24T12:04:19;10.68;;;6.53;;
26598;SDS011;14240;51.064;16.612;2023-06-24T12:06:46;8.40;;;6.60;;
26598;SDS011;14240;51.064;16.612;2023-06-24T12:09:12;7.45;;;6.50;;
26598;SDS011;14240;51.064;16.612;2023-06-24T12:11:37;9.65;;;6.85;;
26598;SDS011;14240;51.064;16.612;2023-06-24T12:14:03;8.43;;;6.32;;
26598;SDS011;14240;51.064;16.612;2023-06-24T12:16:30;8.27;;;6.30;;
26598;SDS011;14240;51.064;16.612;2023-06-24T12:18:55;7.57;;;6.60;;
26598;SDS011;14240;51.064;16.612;2023-06-24T12:21:21;9.50;;;6.68;;
26598;SDS011;14240;51.064;16.612;2023-06-24T12:23:47;9.85;;;6.70;;
26598;SDS011;14240;51.064;16.612;2023-06-24T12:26:13;10.40;;;7.13;;
26598;SDS011;14240;51.064;16.612;2023-06-24T12:28:42;8.27;;;6.45;;
26598;SDS011;14240;51.064;16.612;2023-06-24T12:31:07;9.75;;;6.30;;
26598;SDS011;14240;51.064;16.612;2023-06-24T12:33:33;8.40;;;5.70;;
26598;SDS011;14240;51.064;16.612;2023-06-24T12:35:59;9.48;;;5.88;;
26598;SDS011;14240;51.064;16.612;2023-06-24T12:38:25;9.10;;;6.28;;
26598;SDS011;14240;51.064;16.612;2023-06-24T12:40:51;7.70;;;6.03;;
26598;SDS011;14240;51.064;16.612;2023-06-24T12:43:17;8.23;;;6.07;;
26598;SDS011;14240;51.064;16.612;2023-06-24T12:45:43;8.82;;;5.32;;
26598;SDS011;14240;51.064;16.612;2023-06-24T12:48:09;7.45;;;5.75;;
26598;SDS011;14240;51.064;16.612;2023-06-24T12:50:36;7.57;;;5.95;;
26598;SDS011;14240;51.064;16.612;2023-06-24T12:53:02;10.32;;;7.05;;
26598;SDS011;14240;51.064;16.612;2023-06-24T12:55:28;6.68;;;5.60;;
26598;SDS011;14240;51.064;16.612;2023-06-24T12:57:54;10.20;;;5.35;;
26598;SDS011;14240;51.064;16.612;2023-06-24T13:00:20;7.93;;;5.45;;
26598;SDS011;14240;51.064;16.612;2023-06-24T13:02:47;7.90;;;5.93;;
26598;SDS011;14240;51.064;16.612;2023-06-24T13:05:13;10.18;;;5.28;;
26598;SDS011;14240;51.064;16.612;2023-06-24T13:07:38;7.22;;;5.50;;
26598;SDS011;14240;51.064;16.612;2023-06-24T13:10:04;8.98;;;5.40;;
26598;SDS011;14240;51.064;16.612;2023-06-24T13:12:34;8.48;;;5.70;;
26598;SDS011;14240;51.064;16.612;2023-06-24T13:15:00;8.38;;;5.68;;
26598;SDS011;14240;51.064;16.612;2023-06-24T13:17:26;6.78;;;5.40;;
26598;SDS011;14240;51.064;16.612;2023-06-24T13:19:52;8.30;;;6.25;;
26598;SDS011;14240;51.064;16.612;2023-06-24T13:22:18;7.68;;;5.72;;
26598;SDS011;14240;51.064;16.612;2023-06-24T13:24:44;13.07;;;5.97;;
26598;SDS011;14240;51.064;16.612;2023-06-24T13:27:10;6.93;;;5.70;;
26598;SDS011;14240;51.064;16.612;2023-06-24T13:29:36;8.85;;;5.53;;
26598;SDS011;14240;51.064;16.612;2023-06-24T13:32:02;9.23;;;5.55;;
26598;SDS011;14240;51.064;16.612;2023-06-24T13:34:28;9.20;;;5.43;;
26598;SDS011;14240;51.064;16.612;2023-06-24T13:36:53;7.03;;;5.65;;
26598;SDS011;14240;51.064;16.612;2023-06-24T13:39:19;6.32;;;5.45;;
26598;SDS011;14240;51.064;16.612;2023-06-24T13:41:48;10.52;;;6.03;;
26598;SDS011;14240;51.064;16.612;2023-06-24T13:44:14;7.25;;;5.22;;
26598;SDS011;14240;51.064;16.612;2023-06-24T13:46:41;7.22;;;4.65;;
26598;SDS011;14240;51.064;16.612;2023-06-24T13:49:06;8.80;;;5.57;;
26598;SDS011;14240;51.064;16.612;2023-06-24T13:51:32;8.57;;;5.63;;
26598;SDS011;14240;51.064;16.612;2023-06-24T13:53:58;6.60;;;4.88;;
26598;SDS011;14240;51.064;16.612;2023-06-24T13:56:25;8.20;;;4.43;;
26598;SDS011;14240;51.064;16.612;2023-06-24T13:58:51;14.85;;;6.93;;
26598;SDS011;14240;51.064;16.612;2023-06-24T14:01:18;5.10;;;4.57;;
26598;SDS011;14240;51.064;16.612;2023-06-24T14:03:44;5.85;;;4.53;;
26598;SDS011;14240;51.064;16.612;2023-06-24T14:06:11;8.23;;;5.28;;
26598;SDS011;14240;51.064;16.612;2023-06-24T14:08:39;8.27;;;4.97;;
26598;SDS011;14240;51.064;16.612;2023-06-24T14:11:05;8.40;;;4.93;;
26598;SDS011;14240;51.064;16.612;2023-06-24T14:13:31;6.75;;;4.97;;
26598;SDS011;14240;51.064;16.612;2023-06-24T14:15:57;8.30;;;5.00;;
26598;SDS011;14240;51.064;16.612;2023-06-24T14:18:23;8.07;;;4.63;;
26598;SDS011;14240;51.064;16.612;2023-06-24T14:20:48;9.80;;;6.25;;
26598;SDS011;14240;51.064;16.612;2023-06-24T14:23:14;8.18;;;4.80;;
26598;SDS011;14240;51.064;16.612;2023-06-24T14:25:40;10.52;;;5.90;;
26598;SDS011;14240;51.064;16.612;2023-06-24T14:28:06;8.30;;;5.40;;
26598;SDS011;14240;51.064;16.612;2023-06-24T14:30:32;8.10;;;4.85;;
26598;SDS011;14240;51.064;16.612;2023-06-24T14:32:59;5.47;;;4.90;;
26598;SDS011;14240;51.064;16.612;2023-06-24T14:35:25;6.82;;;4.82;;
26598;SDS011;14240;51.064;16.612;2023-06-24T14:37:51;6.03;;;4.65;;
26598;SDS011;14240;51.064;16.612;2023-06-24T14:40:17;11.52;;;4.88;;
26598;SDS011;14240;51.064;16.612;2023-06-24T14:42:43;5.15;;;4.65;;
26598;SDS011;14240;51.064;16.612;2023-06-24T14:45:08;7.22;;;4.63;;